sensor_id;sensor_type;location;lat;lon;timestamp;pressure;altitude;pressure_sealevel;temperature;humidity
8069;BME280;4077;43.702;24.896;2022-07-23T00:00:53;99459.41;;;20.96;63.48
8069;BME280;4077;43.702;24.896;2022-07-23T00:03:18;99459.75;;;20.86;64.39
8069;BME280;4077;43.702;24.896;2022-07-23T00:05:44;99457.41;;;20.76;65.14
8069;BME280;4077;43.702;24.896;2022-07-23T00:08:09;99460.84;;;20.79;66.07
8069;BME280;4077;43.702;24.896;2022-07-23T00:10:35;99453.34;;;20.66;66.32
8069;BME280;4077;43.702;24.896;2022-07-23T00:13:01;99468.25;;;20.66;67.09
8069;BME280;4077;43.702;24.896;2022-07-23T00:15:27;99466.56;;;20.63;68.23
8069;BME280;4077;43.702;24.896;2022-07-23T00:17:52;99466.72;;;20.57;68.55
8069;BME280;4077;43.702;24.896;2022-07-23T00:20:18;99477.34;;;20.82;81.18
8069;BME280;4077;43.702;24.896;2022-07-23T00:22:48;99477.66;;;20.73;88.51
8069;BME280;4077;43.702;24.896;2022-07-23T00:25:14;99472.53;;;20.68;94.07
8069;BME280;4077;43.702;24.896;2022-07-23T00:27:39;99471.50;;;20.72;98.19
8069;BME280;4077;43.702;24.896;2022-07-23T00:30:05;99472.84;;;20.86;95.93
8069;BME280;4077;43.702;24.896;2022-07-23T00:32:31;99483.94;;;20.95;95.04
8069;BME280;4077;43.702;24.896;2022-07-23T00:34:56;99481.94;;;20.75;94.16
8069;BME280;4077;43.702;24.896;2022-07-23T00:37:22;99481.59;;;20.57;94.72
8069;BME280;4077;43.702;24.896;2022-07-23T00:39:47;99482.66;;;20.81;92.58
8069;BME280;4077;43.702;24.896;2022-07-23T00:42:12;99481.19;;;20.70;93.13
8069;BME280;4077;43.702;24.896;2022-07-23T00:44:38;99486.69;;;20.63;89.66
8069;BME280;4077;43.702;24.896;2022-07-23T00:47:04;99484.28;;;20.55;90.18
8069;BME280;4077;43.702;24.896;2022-07-23T00:49:31;99487.81;;;20.54;90.80
8069;BME280;4077;43.702;24.896;2022-07-23T00:51:57;99485.94;;;20.59;90.91
8069;BME280;4077;43.702;24.896;2022-07-23T00:54:27;99482.97;;;20.70;90.67
8069;BME280;4077;43.702;24.896;2022-07-23T00:56:53;99488.38;;;20.64;91.77
8069;BME280;4077;43.702;24.896;2022-07-23T00:59:18;99476.50;;;20.82;91.39
8069;BME280;4077;43.702;24.896;2022-07-23T01:01:44;99493.16;;;20.79;90.12
8069;BME280;4077;43.702;24.896;2022-07-23T01:04:10;99494.59;;;20.61;91.10
8069;BME280;4077;43.702;24.896;2022-07-23T01:06:38;99482.13;;;20.38;93.84
8069;BME280;4077;43.702;24.896;2022-07-23T01:09:05;99475.75;;;20.16;96.01
8069;BME280;4077;43.702;24.896;2022-07-23T01:11:34;99472.81;;;19.95;98.20
8069;BME280;4077;43.702;24.896;2022-07-23T01:14:11;99472.47;;;19.77;99.59
8069;BME280;4077;43.702;24.896;2022-07-23T01:16:37;99471.94;;;19.64;100.00
8069;BME280;4077;43.702;24.896;2022-07-23T01:19:02;99461.63;;;19.56;100.00
8069;BME280;4077;43.702;24.896;2022-07-23T01:21:32;99461.78;;;19.50;100.00
8069;BME280;4077;43.702;24.896;2022-07-23T01:23:59;99460.94;;;19.48;100.00
8069;BME280;4077;43.702;24.896;2022-07-23T01:26:25;99462.88;;;19.40;100.00
8069;BME280;4077;43.702;24.896;2022-07-23T01:28:50;99452.56;;;19.35;100.00
8069;BME280;4077;43.702;24.896;2022-07-23T01:31:16;99454.28;;;19.35;100.00
8069;BME280;4077;43.702;24.896;2022-07-23T01:33:43;99455.31;;;19.29;100.00
8069;BME280;4077;43.702;24.896;2022-07-23T01:36:08;99438.91;;;19.23;100.00
8069;BME280;4077;43.702;24.896;2022-07-23T01:38:34;99442.44;;;19.20;100.00
8069;BME280;4077;43.702;24.896;2022-07-23T01:40:59;99435.59;;;19.14;100.00
8069;BME280;4077;43.702;24.896;2022-07-23T01:43:25;99445.09;;;19.19;100.00
8069;BME280;4077;43.702;24.896;2022-07-23T01:45:50;99446.06;;;19.14;100.00
8069;BME280;4077;43.702;24.896;2022-07-23T01:48:15;99444.28;;;19.17;100.00
8069;BME280;4077;43.702;24.896;2022-07-23T01:50:41;99440.09;;;19.09;100.00
8069;BME280;4077;43.702;24.896;2022-07-23T01:53:07;99439.97;;;19.14;100.00
8069;BME280;4077;43.702;24.896;2022-07-23T01:55:33;99435.66;;;19.11;100.00
8069;BME280;4077;43.702;24.896;2022-07-23T01:57:58;99442.63;;;19.12;100.00
8069;BME280;4077;43.702;24.896;2022-07-23T02:00:24;99433.16;;;19.08;100.00
8069;BME280;4077;43.702;24.896;2022-07-23T02:02:50;99440.09;;;19.09;100.00
8069;BME280;4077;43.702;24.896;2022-07-23T02:05:15;99436.69;;;19.06;100.00
8069;BME280;4077;43.702;24.896;2022-07-23T02:07:40;99445.28;;;19.11;100.00
8069;BME280;4077;43.702;24.896;2022-07-23T02:10:07;99437.63;;;19.03;100.00
8069;BME280;4077;43.702;24.896;2022-07-23T02:12:33;99447.09;;;19.07;100.00
8069;BME280;4077;43.702;24.896;2022-07-23T02:14:58;99445.38;;;19.08;100.00
8069;BME280;4077;43.702;24.896;2022-07-23T02:17:24;99448.00;;;19.06;100.00
8069;BME280;4077;43.702;24.896;2022-07-23T02:19:49;99458.38;;;19.11;100.00
8069;BME280;4077;43.702;24.896;2022-07-23T02:22:14;99454.06;;;19.08;100.00
8069;BME280;4077;43.702;24.896;2022-07-23T02:24:40;99455.75;;;19.11;100.00
8069;BME280;4077;43.702;24.896;2022-07-23T02:27:05;99458.31;;;19.12;100.00
8069;BME280;4077;43.702;24.896;2022-07-23T02:29:31;99448.75;;;19.11;100.00
8069;BME280;4077;43.702;24.896;2022-07-23T02:31:56;99462.66;;;19.13;100.00
8069;BME280;4077;43.702;24.896;2022-07-23T02:34:22;99455.78;;;19.09;100.00
8069;BME280;4077;43.702;24.896;2022-07-23T02:36:47;99465.41;;;19.07;100.00
8069;BME280;4077;43.702;24.896;2022-07-23T02:39:12;99455.84;;;19.08;100.00
8069;BME280;4077;43.702;24.896;2022-07-23T02:41:39;99462.78;;;19.07;100.00
8069;BME280;4077;43.702;24.896;2022-07-23T02:44:05;99454.94;;;19.07;100.00
8069;BME280;4077;43.702;24.896;2022-07-23T02:46:30;99461.97;;;19.05;100.00
8069;BME280;4077;43.702;24.896;2022-07-23T02:48:55;99462.88;;;19.04;100.00
8069;BME280;4077;43.702;24.896;2022-07-23T02:51:21;99458.59;;;19.00;100.00
8069;BME280;4077;43.702;24.896;2022-07-23T02:53:46;99470.00;;;18.98;100.00
8069;BME280;4077;43.702;24.896;2022-07-23T02:56:12;99469.16;;;18.97;100.00
8069;BME280;4077;43.702;24.896;2022-07-23T02:58:37;99470.06;;;18.96;100.00
8069;BME280;4077;43.702;24.896;2022-07-23T03:01:03;99470.88;;;18.98;100.00
8069;BME280;4077;43.702;24.896;2022-07-23T03:03:28;99471.72;;;18.99;100.00
8069;BME280;4077;43.702;24.896;2022-07-23T03:05:54;99469.16;;;18.97;100.00
8069;BME280;4077;43.702;24.896;2022-07-23T03:08:19;99479.53;;;19.00;100.00
8069;BME280;4077;43.702;24.896;2022-07-23T03:10:45;99481.28;;;19.01;100.00
8069;BME280;4077;43.702;24.896;2022-07-23T03:13:10;99481.28;;;19.01;100.00
8069;BME280;4077;43.702;24.896;2022-07-23T03:15:35;99483.84;;;19.03;100.00
8069;BME280;4077;43.702;24.896;2022-07-23T03:18:01;99480.47;;;18.98;100.00
8069;BME280;4077;43.702;24.896;2022-07-23T03:20:26;99482.28;;;18.96;100.00
8069;BME280;4077;43.702;24.896;2022-07-23T03:22:52;99489.41;;;18.89;100.00
8069;BME280;4077;43.702;24.896;2022-07-23T03:25:17;99495.66;;;18.82;100.00
8069;BME280;4077;43.702;24.896;2022-07-23T03:27:43;99489.88;;;18.68;100.00
8069;BME280;4077;43.702;24.896;2022-07-23T03:30:10;99498.63;;;18.64;100.00
8069;BME280;4077;43.702;24.896;2022-07-23T03:32:37;99492.63;;;18.58;100.00
8069;BME280;4077;43.702;24.896;2022-07-23T03:35:03;99502.88;;;18.71;100.00
8069;BME280;4077;43.702;24.896;2022-07-23T03:37:29;99509.44;;;18.90;100.00
8069;BME280;4077;43.702;24.896;2022-07-23T03:39:54;99510.94;;;19.00;100.00
8069;BME280;4077;43.702;24.896;2022-07-23T03:42:20;99516.84;;;19.10;100.00
8069;BME280;4077;43.702;24.896;2022-07-23T03:44:45;99521.84;;;19.19;100.00
8069;BME280;4077;43.702;24.896;2022-07-23T03:47:11;99512.94;;;19.26;100.00
8069;BME280;4077;43.702;24.896;2022-07-23T03:49:36;99519.88;;;19.29;100.00
8069;BME280;4077;43.702;24.896;2022-07-23T03:52:01;99513.13;;;19.19;100.00
8069;BME280;4077;43.702;24.896;2022-07-23T03:54:27;99515.84;;;19.14;100.00
8069;BME280;4077;43.702;24.896;2022-07-23T03:56:53;99506.03;;;19.24;100.00
8069;BME280;4077;43.702;24.896;2022-07-23T03:59:18;99518.75;;;19.39;100.00
8069;BME280;4077;43.702;24.896;2022-07-23T04:01:44;99501.44;;;19.33;100.00
8069;BME280;4077;43.702;24.896;2022-07-23T04:04:09;99505.91;;;19.28;100.00
8069;BME280;4077;43.702;24.896;2022-07-23T04:06:36;99507.81;;;19.23;100.00
8069;BME280;4077;43.702;24.896;2022-07-23T04:09:02;99518.31;;;19.22;100.00
8069;BME280;4077;43.702;24.896;2022-07-23T04:11:28;99512.38;;;19.13;100.00
8069;BME280;4077;43.702;24.896;2022-07-23T04:13:53;99514.94;;;19.17;100.00
8069;BME280;4077;43.702;24.896;2022-07-23T04:16:19;99510.59;;;19.16;100.00
8069;BME280;4077;43.702;24.896;2022-07-23T04:18:44;99515.78;;;19.17;100.00
8069;BME280;4077;43.702;24.896;2022-07-23T04:21:10;99509.69;;;19.17;100.00
8069;BME280;4077;43.702;24.896;2022-07-23T04:23:35;99505.38;;;19.16;100.00
8069;BME280;4077;43.702;24.896;2022-07-23T04:26:01;99522.91;;;19.10;100.00
8069;BME280;4077;43.702;24.896;2022-07-23T04:28:26;99520.03;;;19.21;100.00
8069;BME280;4077;43.702;24.896;2022-07-23T04:30:52;99512.03;;;19.29;100.00
8069;BME280;4077;43.702;24.896;2022-07-23T04:33:17;99515.25;;;19.40;100.00
8069;BME280;4077;43.702;24.896;2022-07-23T04:35:43;99520.47;;;19.40;100.00
8069;BME280;4077;43.702;24.896;2022-07-23T04:38:08;99522.03;;;19.47;100.00
8069;BME280;4077;43.702;24.896;2022-07-23T04:40:34;99527.22;;;19.50;100.00
8069;BME280;4077;43.702;24.896;2022-07-23T04:42:59;99521.28;;;19.44;100.00
8069;BME280;4077;43.702;24.896;2022-07-23T04:45:25;99527.22;;;19.50;100.00
8069;BME280;4077;43.702;24.896;2022-07-23T04:47:50;99535.75;;;19.60;100.00
8069;BME280;4077;43.702;24.896;2022-07-23T04:50:16;99538.31;;;19.63;100.00
8069;BME280;4077;43.702;24.896;2022-07-23T04:52:49;99542.34;;;19.75;100.00
8069;BME280;4077;43.702;24.896;2022-07-23T04:55:15;99545.63;;;19.83;100.00
8069;BME280;4077;43.702;24.896;2022-07-23T04:57:41;99549.84;;;19.88;100.00
8069;BME280;4077;43.702;24.896;2022-07-23T05:00:07;99543.69;;;19.91;100.00
8069;BME280;4077;43.702;24.896;2022-07-23T05:02:33;99551.41;;;19.95;100.00
8069;BME280;4077;43.702;24.896;2022-07-23T05:04:58;99558.44;;;20.28;100.00
8069;BME280;4077;43.702;24.896;2022-07-23T05:07:24;99552.75;;;20.46;100.00
8069;BME280;4077;43.702;24.896;2022-07-23T05:09:49;99546.78;;;20.39;100.00
8069;BME280;4077;43.702;24.896;2022-07-23T05:12:15;99553.50;;;20.49;100.00
8069;BME280;4077;43.702;24.896;2022-07-23T05:14:41;99553.44;;;20.53;100.00
8069;BME280;4077;43.702;24.896;2022-07-23T05:17:07;99548.59;;;20.68;100.00
8069;BME280;4077;43.702;24.896;2022-07-23T05:19:34;99555.88;;;20.88;100.00
8069;BME280;4077;43.702;24.896;2022-07-23T05:21:59;99560.50;;;21.10;100.00
8069;BME280;4077;43.702;24.896;2022-07-23T05:24:25;99561.72;;;21.26;100.00
8069;BME280;4077;43.702;24.896;2022-07-23T05:26:50;99561.94;;;21.48;100.00
8069;BME280;4077;43.702;24.896;2022-07-23T05:29:16;99556.34;;;21.58;100.00
8069;BME280;4077;43.702;24.896;2022-07-23T05:31:41;99561.47;;;21.63;100.00
8069;BME280;4077;43.702;24.896;2022-07-23T05:34:07;99560.63;;;21.61;100.00
8069;BME280;4077;43.702;24.896;2022-07-23T05:36:32;99563.25;;;21.63;100.00
8069;BME280;4077;43.702;24.896;2022-07-23T05:38:58;99557.00;;;21.39;100.00
8069;BME280;4077;43.702;24.896;2022-07-23T05:41:24;99563.78;;;21.46;100.00
8069;BME280;4077;43.702;24.896;2022-07-23T05:43:49;99562.00;;;21.46;100.00
8069;BME280;4077;43.702;24.896;2022-07-23T05:46:15;99563.53;;;21.80;100.00
8069;BME280;4077;43.702;24.896;2022-07-23T05:48:40;99559.59;;;21.93;100.00
8069;BME280;4077;43.702;24.896;2022-07-23T05:51:07;99571.88;;;22.19;100.00
8069;BME280;4077;43.702;24.896;2022-07-23T05:53:34;99569.63;;;22.33;100.00
8069;BME280;4077;43.702;24.896;2022-07-23T05:55:59;99576.38;;;22.41;100.00
8069;BME280;4077;43.702;24.896;2022-07-23T05:58:25;99576.81;;;22.53;100.00
8069;BME280;4077;43.702;24.896;2022-07-23T06:00:50;99568.50;;;22.64;100.00
8069;BME280;4077;43.702;24.896;2022-07-23T06:03:16;99574.94;;;22.80;100.00
8069;BME280;4077;43.702;24.896;2022-07-23T06:05:41;99575.25;;;22.96;100.00
8069;BME280;4077;43.702;24.896;2022-07-23T06:08:06;99586.50;;;23.23;100.00
8069;BME280;4077;43.702;24.896;2022-07-23T06:10:32;99590.94;;;23.66;98.34
8069;BME280;4077;43.702;24.896;2022-07-23T06:12:57;99591.19;;;23.82;94.64
8069;BME280;4077;43.702;24.896;2022-07-23T06:15:23;99591.06;;;23.85;93.44
8069;BME280;4077;43.702;24.896;2022-07-23T06:17:48;99591.72;;;23.90;93.31
8069;BME280;4077;43.702;24.896;2022-07-23T06:20:14;99594.91;;;23.98;92.89
8069;BME280;4077;43.702;24.896;2022-07-23T06:22:39;99582.25;;;24.07;91.44
8069;BME280;4077;43.702;24.896;2022-07-23T06:25:06;99592.69;;;24.10;89.34
8069;BME280;4077;43.702;24.896;2022-07-23T06:27:32;99592.59;;;24.11;88.14
8069;BME280;4077;43.702;24.896;2022-07-23T06:29:57;99592.44;;;24.16;87.60
8069;BME280;4077;43.702;24.896;2022-07-23T06:32:23;99600.19;;;24.19;88.62
8069;BME280;4077;43.702;24.896;2022-07-23T06:34:48;99593.81;;;24.24;88.93
8069;BME280;4077;43.702;24.896;2022-07-23T06:37:14;99587.41;;;24.30;91.87
8069;BME280;4077;43.702;24.896;2022-07-23T06:39:39;99581.59;;;24.42;92.16
8069;BME280;4077;43.702;24.896;2022-07-23T06:42:04;99593.84;;;24.64;85.99
8069;BME280;4077;43.702;24.896;2022-07-23T06:44:30;99593.81;;;24.84;82.39
8069;BME280;4077;43.702;24.896;2022-07-23T06:46:55;99604.25;;;25.07;79.88
8069;BME280;4077;43.702;24.896;2022-07-23T06:49:21;99602.66;;;25.22;78.38
8069;BME280;4077;43.702;24.896;2022-07-23T06:51:46;99603.91;;;25.51;77.64
8069;BME280;4077;43.702;24.896;2022-07-23T06:54:12;99609.78;;;25.77;74.35
8069;BME280;4077;43.702;24.896;2022-07-23T06:56:37;99601.63;;;25.99;73.91
8069;BME280;4077;43.702;24.896;2022-07-23T06:59:03;99607.91;;;26.13;72.14
8069;BME280;4077;43.702;24.896;2022-07-23T07:01:28;99610.59;;;26.31;69.29
8069;BME280;4077;43.702;24.896;2022-07-23T07:03:54;99608.47;;;26.55;66.42
8069;BME280;4077;43.702;24.896;2022-07-23T07:06:20;99613.66;;;26.73;65.27
8069;BME280;4077;43.702;24.896;2022-07-23T07:08:45;99607.34;;;26.76;65.42
8069;BME280;4077;43.702;24.896;2022-07-23T07:11:11;99606.16;;;26.82;65.72
8069;BME280;4077;43.702;24.896;2022-07-23T07:13:38;99615.81;;;27.16;64.75
8069;BME280;4077;43.702;24.896;2022-07-23T07:16:04;99614.31;;;27.27;64.82
8069;BME280;4077;43.702;24.896;2022-07-23T07:18:30;99616.84;;;27.29;64.57
8069;BME280;4077;43.702;24.896;2022-07-23T07:20:57;99611.41;;;27.32;64.09
8069;BME280;4077;43.702;24.896;2022-07-23T07:23:23;99612.25;;;27.33;63.06
8069;BME280;4077;43.702;24.896;2022-07-23T07:25:49;99597.88;;;27.52;60.78
8069;BME280;4077;43.702;24.896;2022-07-23T07:28:14;99612.91;;;27.84;60.01
8069;BME280;4077;43.702;24.896;2022-07-23T07:30:40;99620.56;;;28.04;60.80
8069;BME280;4077;43.702;24.896;2022-07-23T07:33:05;99622.72;;;28.27;59.42
8069;BME280;4077;43.702;24.896;2022-07-23T07:35:31;99619.75;;;28.48;59.78
8069;BME280;4077;43.702;24.896;2022-07-23T07:37:58;99620.94;;;28.58;58.17
8069;BME280;4077;43.702;24.896;2022-07-23T07:40:23;99624.34;;;28.74;57.69
8069;BME280;4077;43.702;24.896;2022-07-23T07:42:51;99636.53;;;28.93;55.60
8069;BME280;4077;43.702;24.896;2022-07-23T07:45:19;99629.91;;;29.00;55.27
8069;BME280;4077;43.702;24.896;2022-07-23T07:47:44;99634.84;;;29.06;53.55
8069;BME280;4077;43.702;24.896;2022-07-23T07:50:10;99635.19;;;29.14;53.01
8069;BME280;4077;43.702;24.896;2022-07-23T07:52:35;99632.53;;;29.28;51.89
8069;BME280;4077;43.702;24.896;2022-07-23T07:55:05;99638.97;;;29.38;49.93
8069;BME280;4077;43.702;24.896;2022-07-23T07:57:32;99631.53;;;29.43;50.51
8069;BME280;4077;43.702;24.896;2022-07-23T07:59:57;99637.63;;;29.60;50.21
8069;BME280;4077;43.702;24.896;2022-07-23T08:02:23;99625.31;;;29.72;49.80
8069;BME280;4077;43.702;24.896;2022-07-23T08:04:48;99623.31;;;29.75;49.25
8069;BME280;4077;43.702;24.896;2022-07-23T08:07:14;99625.91;;;29.89;47.49
8069;BME280;4077;43.702;24.896;2022-07-23T08:09:40;99627.19;;;30.11;46.39
8069;BME280;4077;43.702;24.896;2022-07-23T08:12:06;99643.84;;;30.27;46.57
8069;BME280;4077;43.702;24.896;2022-07-23T08:14:31;99635.09;;;30.38;46.44
8069;BME280;4077;43.702;24.896;2022-07-23T08:16:57;99633.63;;;30.46;44.06
8069;BME280;4077;43.702;24.896;2022-07-23T08:19:22;99634.72;;;30.57;44.57
8069;BME280;4077;43.702;24.896;2022-07-23T08:21:48;99633.13;;;30.67;44.94
8069;BME280;4077;43.702;24.896;2022-07-23T08:24:13;99625.91;;;30.82;45.73
8069;BME280;4077;43.702;24.896;2022-07-23T08:26:39;99624.94;;;30.95;45.90
8069;BME280;4077;43.702;24.896;2022-07-23T08:29:04;99630.34;;;31.07;45.21
8069;BME280;4077;43.702;24.896;2022-07-23T08:31:30;99631.91;;;31.22;46.09
8069;BME280;4077;43.702;24.896;2022-07-23T08:33:58;99621.34;;;31.33;45.82
8069;BME280;4077;43.702;24.896;2022-07-23T08:36:24;99628.06;;;31.39;44.90
8069;BME280;4077;43.702;24.896;2022-07-23T08:38:53;99621.66;;;31.41;44.41
8069;BME280;4077;43.702;24.896;2022-07-23T08:41:19;99629.09;;;31.49;44.34
8069;BME280;4077;43.702;24.896;2022-07-23T08:43:45;99629.00;;;31.50;42.29
8069;BME280;4077;43.702;24.896;2022-07-23T08:46:12;99628.66;;;31.55;41.42
8069;BME280;4077;43.702;24.896;2022-07-23T08:48:38;99627.78;;;31.54;41.19
8069;BME280;4077;43.702;24.896;2022-07-23T08:51:05;99629.03;;;31.62;41.08
8069;BME280;4077;43.702;24.896;2022-07-23T08:53:32;99625.19;;;31.66;40.80
8069;BME280;4077;43.702;24.896;2022-07-23T08:56:00;99624.75;;;31.72;40.61
8069;BME280;4077;43.702;24.896;2022-07-23T08:58:30;99621.13;;;31.73;40.60
8069;BME280;4077;43.702;24.896;2022-07-23T09:00:56;99627.06;;;31.76;41.02
8069;BME280;4077;43.702;24.896;2022-07-23T09:03:24;99618.75;;;31.81;40.99
8069;BME280;4077;43.702;24.896;2022-07-23T09:05:50;99627.03;;;31.89;41.29
8069;BME280;4077;43.702;24.896;2022-07-23T09:08:18;99622.72;;;31.99;41.98
8069;BME280;4077;43.702;24.896;2022-07-23T09:11:07;99624.19;;;32.03;42.68
8069;BME280;4077;43.702;24.896;2022-07-23T09:16:10;99631.03;;;32.19;41.87
8069;BME280;4077;43.702;24.896;2022-07-23T09:18:46;99626.06;;;32.25;42.49
8069;BME280;4077;43.702;24.896;2022-07-23T09:21:21;99630.38;;;32.39;42.46
8069;BME280;4077;43.702;24.896;2022-07-23T09:23:54;99624.34;;;32.48;41.43
8069;BME280;4077;43.702;24.896;2022-07-23T09:26:29;99634.31;;;32.57;39.82
8069;BME280;4077;43.702;24.896;2022-07-23T09:29:04;99639.19;;;32.63;39.99
8069;BME280;4077;43.702;24.896;2022-07-23T09:32:14;99638.47;;;32.73;39.63
8069;BME280;4077;43.702;24.896;2022-07-23T09:36:48;99624.03;;;33.20;38.68
8069;BME280;4077;43.702;24.896;2022-07-23T09:39:15;99638.94;;;33.79;36.93
8069;BME280;4077;43.702;24.896;2022-07-23T09:41:46;99641.09;;;34.79;36.50
8069;BME280;4077;43.702;24.896;2022-07-23T09:44:17;99651.47;;;35.45;34.47
8069;BME280;4077;43.702;24.896;2022-07-23T09:46:45;99652.00;;;36.18;34.19
8069;BME280;4077;43.702;24.896;2022-07-23T09:49:20;99663.31;;;36.60;32.03
8069;BME280;4077;43.702;24.896;2022-07-23T09:56:48;99665.25;;;37.80;31.35
8069;BME280;4077;43.702;24.896;2022-07-23T09:59:16;99650.78;;;36.88;30.63
8069;BME280;4077;43.702;24.896;2022-07-23T10:01:43;99646.34;;;35.92;30.17
8069;BME280;4077;43.702;24.896;2022-07-23T10:04:10;99627.22;;;35.26;32.15
8069;BME280;4077;43.702;24.896;2022-07-23T10:06:38;99630.09;;;35.03;32.71
8069;BME280;4077;43.702;24.896;2022-07-23T10:09:04;99617.31;;;34.65;32.26
8069;BME280;4077;43.702;24.896;2022-07-23T10:11:31;99613.47;;;34.58;33.70
8069;BME280;4077;43.702;24.896;2022-07-23T10:13:57;99612.75;;;34.56;32.98
8069;BME280;4077;43.702;24.896;2022-07-23T10:16:25;99599.69;;;34.42;33.53
8069;BME280;4077;43.702;24.896;2022-07-23T10:18:50;99596.03;;;34.43;34.46
8069;BME280;4077;43.702;24.896;2022-07-23T10:21:24;99599.75;;;34.51;33.47
8069;BME280;4077;43.702;24.896;2022-07-23T10:29:55;99592.47;;;34.63;32.46
8069;BME280;4077;43.702;24.896;2022-07-23T10:35:13;99593.94;;;34.77;32.10
8069;BME280;4077;43.702;24.896;2022-07-23T10:37:47;99578.88;;;34.86;32.64
8069;BME280;4077;43.702;24.896;2022-07-23T10:40:19;99584.38;;;34.84;32.42
8069;BME280;4077;43.702;24.896;2022-07-23T10:42:46;99577.59;;;34.80;31.87
8069;BME280;4077;43.702;24.896;2022-07-23T10:47:48;99566.56;;;34.73;32.70
8069;BME280;4077;43.702;24.896;2022-07-23T10:50:26;99564.06;;;34.81;33.06
8069;BME280;4077;43.702;24.896;2022-07-23T10:53:07;99569.41;;;34.81;33.65
8069;BME280;4077;43.702;24.896;2022-07-23T10:58:00;99547.41;;;34.88;34.23
8069;BME280;4077;43.702;24.896;2022-07-23T11:00:27;99557.31;;;34.87;33.96
8069;BME280;4077;43.702;24.896;2022-07-23T11:02:56;99548.97;;;34.90;34.44
8069;BME280;4077;43.702;24.896;2022-07-23T11:05:24;99540.06;;;34.90;34.97
8069;BME280;4077;43.702;24.896;2022-07-23T11:10:39;99543.75;;;34.89;33.88
8069;BME280;4077;43.702;24.896;2022-07-23T11:24:16;99521.81;;;35.33;32.29
8069;BME280;4077;43.702;24.896;2022-07-23T11:31:52;99524.09;;;35.38;31.22
8069;BME280;4077;43.702;24.896;2022-07-23T11:34:43;99518.19;;;35.44;31.05
8069;BME280;4077;43.702;24.896;2022-07-23T11:37:26;99519.31;;;35.61;30.42
8069;BME280;4077;43.702;24.896;2022-07-23T11:39:56;99517.38;;;35.63;30.19
8069;BME280;4077;43.702;24.896;2022-07-23T11:42:22;99517.19;;;35.55;31.11
8069;BME280;4077;43.702;24.896;2022-07-23T11:44:48;99522.03;;;35.71;30.37
8069;BME280;4077;43.702;24.896;2022-07-23T11:47:13;99523.00;;;35.79;30.47
8069;BME280;4077;43.702;24.896;2022-07-23T11:49:41;99518.91;;;35.85;29.79
8069;BME280;4077;43.702;24.896;2022-07-23T11:52:17;99523.00;;;35.79;30.16
8069;BME280;4077;43.702;24.896;2022-07-23T11:57:29;99515.78;;;35.99;29.91
8069;BME280;4077;43.702;24.896;2022-07-23T11:59:58;99510.25;;;36.01;30.16
8069;BME280;4077;43.702;24.896;2022-07-23T12:02:25;99507.31;;;36.04;29.33
8069;BME280;4077;43.702;24.896;2022-07-23T12:04:52;99508.88;;;35.97;28.92
8069;BME280;4077;43.702;24.896;2022-07-23T12:07:39;99513.66;;;35.83;28.97
8069;BME280;4077;43.702;24.896;2022-07-23T12:12:40;99510.56;;;35.59;28.75
8069;BME280;4077;43.702;24.896;2022-07-23T12:15:07;99497.09;;;35.30;28.95
8069;BME280;4077;43.702;24.896;2022-07-23T12:17:35;99501.03;;;35.26;29.66
8069;BME280;4077;43.702;24.896;2022-07-23T12:20:04;99498.06;;;35.09;29.34
8069;BME280;4077;43.702;24.896;2022-07-23T12:22:45;99489.28;;;34.98;29.57
8069;BME280;4077;43.702;24.896;2022-07-23T12:25:23;99489.59;;;35.04;29.82
8069;BME280;4077;43.702;24.896;2022-07-23T12:30:50;99478.44;;;35.19;29.03
8069;BME280;4077;43.702;24.896;2022-07-23T12:33:31;99483.53;;;35.31;28.04
8069;BME280;4077;43.702;24.896;2022-07-23T12:35:59;99464.88;;;35.11;28.24
8069;BME280;4077;43.702;24.896;2022-07-23T12:38:26;99470.53;;;35.17;28.48
8069;BME280;4077;43.702;24.896;2022-07-23T12:40:54;99471.53;;;35.16;28.88
8069;BME280;4077;43.702;24.896;2022-07-23T12:43:25;99469.53;;;35.18;27.79
8069;BME280;4077;43.702;24.896;2022-07-23T12:48:25;99458.53;;;35.02;28.23
8069;BME280;4077;43.702;24.896;2022-07-23T12:56:07;99461.19;;;35.02;28.02
8069;BME280;4077;43.702;24.896;2022-07-23T13:01:05;99445.28;;;34.79;28.55
8069;BME280;4077;43.702;24.896;2022-07-23T13:06:00;99447.28;;;34.77;27.82
8069;BME280;4077;43.702;24.896;2022-07-23T13:08:27;99443.34;;;34.81;28.43
8069;BME280;4077;43.702;24.896;2022-07-23T13:10:54;99432.63;;;34.81;28.63
8069;BME280;4077;43.702;24.896;2022-07-23T13:13:22;99438.13;;;34.80;29.09
8069;BME280;4077;43.702;24.896;2022-07-23T13:15:49;99432.75;;;34.80;29.93
8069;BME280;4077;43.702;24.896;2022-07-23T13:18:15;99431.63;;;34.82;29.35
8069;BME280;4077;43.702;24.896;2022-07-23T13:20:42;99424.00;;;34.88;27.94
8069;BME280;4077;43.702;24.896;2022-07-23T13:23:08;99431.53;;;34.94;29.13
8069;BME280;4077;43.702;24.896;2022-07-23T13:25:33;99424.44;;;34.93;28.91
8069;BME280;4077;43.702;24.896;2022-07-23T13:27:59;99425.19;;;34.95;29.09
8069;BME280;4077;43.702;24.896;2022-07-23T13:30:25;99427.13;;;34.93;29.21
8069;BME280;4077;43.702;24.896;2022-07-23T13:32:50;99428.25;;;34.80;29.65
8069;BME280;4077;43.702;24.896;2022-07-23T13:35:16;99425.56;;;34.80;29.81
8069;BME280;4077;43.702;24.896;2022-07-23T13:37:41;99411.41;;;34.78;29.95
8069;BME280;4077;43.702;24.896;2022-07-23T13:40:07;99406.47;;;34.74;29.70
8069;BME280;4077;43.702;24.896;2022-07-23T13:42:33;99407.59;;;34.71;29.00
8069;BME280;4077;43.702;24.896;2022-07-23T13:44:59;99405.63;;;34.73;29.74
8069;BME280;4077;43.702;24.896;2022-07-23T13:47:25;99409.31;;;34.82;29.28
8069;BME280;4077;43.702;24.896;2022-07-23T13:49:50;99399.97;;;34.76;28.93
8069;BME280;4077;43.702;24.896;2022-07-23T13:52:16;99403.81;;;34.83;29.07
8069;BME280;4077;43.702;24.896;2022-07-23T13:54:41;99402.53;;;34.78;29.52
8069;BME280;4077;43.702;24.896;2022-07-23T13:57:08;99408.31;;;34.73;29.55
8069;BME280;4077;43.702;24.896;2022-07-23T13:59:34;99402.53;;;34.78;29.30
8069;BME280;4077;43.702;24.896;2022-07-23T14:02:04;99393.47;;;34.69;29.24
8069;BME280;4077;43.702;24.896;2022-07-23T14:04:29;99398.25;;;34.66;29.95
8069;BME280;4077;43.702;24.896;2022-07-23T14:07:23;99397.16;;;34.68;29.41
8069;BME280;4077;43.702;24.896;2022-07-23T14:09:49;99394.63;;;34.67;29.21